createdAt,value
2023-03-20T00:01:30.832Z,8.80
2023-03-20T00:03:58.014Z,8.80
2023-03-20T00:06:26.508Z,8.80
2023-03-20T00:08:54.534Z,8.80
2023-03-20T00:11:30.574Z,8.80
2023-03-20T00:14:01.951Z,8.70
2023-03-20T00:16:33.850Z,8.80
2023-03-20T00:19:00.637Z,8.80
2023-03-20T00:21:27.414Z,8.80
2023-03-20T00:23:54.815Z,8.80
2023-03-20T00:26:21.572Z,8.80
2023-03-20T00:28:48.545Z,8.80
2023-03-20T00:31:27.826Z,8.80
2023-03-20T00:33:57.133Z,8.70
2023-03-20T00:36:23.977Z,8.80
2023-03-20T00:38:51.478Z,8.70
2023-03-20T00:41:26.031Z,8.80
2023-03-20T00:43:59.160Z,8.80
2023-03-20T00:46:25.868Z,8.80
2023-03-20T00:48:52.742Z,8.80
2023-03-20T00:51:19.533Z,8.80
2023-03-20T00:53:46.346Z,8.80
2023-03-20T00:56:32.558Z,8.80
2023-03-20T00:59:00.680Z,8.80
2023-03-20T01:01:27.885Z,8.70
2023-03-20T01:03:54.571Z,8.80
2023-03-20T01:06:21.426Z,8.70
2023-03-20T01:08:48.732Z,8.70
2023-03-20T01:11:17.091Z,8.70
2023-03-20T01:13:43.777Z,8.70
2023-03-20T01:16:22.105Z,8.80
2023-03-20T01:18:49.584Z,8.80
2023-03-20T01:21:16.730Z,8.80
2023-03-20T01:23:43.905Z,8.80
2023-03-20T01:26:29.361Z,8.70
2023-03-20T01:28:56.053Z,8.70
2023-03-20T01:31:23.774Z,8.70
2023-03-20T01:33:50.685Z,8.70
2023-03-20T01:36:20.226Z,8.70
2023-03-20T01:38:47.439Z,8.70
2023-03-20T01:41:16.862Z,8.70
2023-03-20T01:43:45.229Z,8.70
2023-03-20T01:46:24.651Z,8.60
2023-03-20T01:48:53.541Z,8.70
2023-03-20T01:51:25.864Z,8.70
2023-03-20T01:54:09.506Z,8.70
2023-03-20T01:56:56.925Z,8.70
2023-03-20T01:59:32.595Z,8.70
2023-03-20T02:01:59.961Z,8.70
2023-03-20T02:04:31.282Z,8.70
2023-03-20T02:07:05.256Z,8.70
2023-03-20T02:09:41.850Z,8.70
2023-03-20T02:12:14.057Z,8.60
2023-03-20T02:14:40.878Z,8.60
2023-03-20T02:17:22.374Z,8.70
2023-03-20T02:20:11.639Z,8.70
2023-03-20T02:23:06.150Z,8.60
2023-03-20T02:25:41.451Z,8.60
2023-03-20T02:28:27.479Z,8.70
2023-03-20T02:31:32.914Z,8.60
2023-03-20T02:34:24.302Z,8.60
2023-03-20T02:37:28.782Z,8.60
2023-03-20T02:39:58.777Z,8.60
2023-03-20T02:42:53.467Z,8.60
2023-03-20T02:45:29.859Z,8.50
2023-03-20T02:48:27.637Z,8.50
2023-03-20T02:51:13.057Z,8.60
2023-03-20T02:53:57.654Z,8.60
2023-03-20T02:56:34.999Z,8.50
2023-03-20T02:59:29.259Z,8.50
2023-03-20T03:02:09.727Z,8.50
2023-03-20T03:04:38.248Z,8.50
2023-03-20T03:07:06.591Z,8.40
2023-03-20T03:09:48.752Z,8.40
2023-03-20T03:12:18.160Z,8.40
2023-03-20T03:14:47.995Z,8.40
2023-03-20T03:17:17.620Z,8.40
2023-03-20T03:19:48.008Z,8.40
2023-03-20T03:22:15.949Z,8.30
2023-03-20T03:24:50.858Z,8.20
2023-03-20T03:27:26.133Z,8.30
2023-03-20T03:30:05.676Z,8.30
2023-03-20T03:32:34.584Z,8.20
2023-03-20T03:35:01.975Z,8.20
2023-03-20T03:38:02.373Z,8.20
2023-03-20T03:40:40.175Z,8.20
2023-03-20T03:43:27.697Z,8.10
2023-03-20T03:46:00.488Z,8.10
2023-03-20T03:48:32.690Z,8.10
2023-03-20T03:51:11.726Z,8.20
2023-03-20T03:53:52.817Z,8.10
2023-03-20T03:56:20.986Z,8.10
2023-03-20T03:58:49.614Z,8.20
2023-03-20T04:01:16.664Z,8.20
2023-03-20T04:03:48.954Z,8.20
2023-03-20T04:06:15.829Z,8.20
2023-03-20T04:08:43.167Z,8.20
2023-03-20T04:11:17.786Z,8.20
2023-03-20T04:13:48.684Z,8.10
2023-03-20T04:16:15.860Z,8.00
2023-03-20T04:18:44.065Z,7.90
2023-03-20T04:21:12.975Z,7.90
2023-03-20T04:23:39.664Z,7.90
2023-03-20T04:26:06.752Z,7.80
2023-03-20T04:28:35.164Z,7.70
2023-03-20T04:31:22.260Z,7.70
2023-03-20T04:34:07.874Z,7.70
2023-03-20T04:36:40.551Z,7.50
2023-03-20T04:39:08.796Z,7.50
2023-03-20T04:41:35.533Z,7.50
2023-03-20T04:44:02.697Z,7.40
2023-03-20T04:46:31.382Z,7.40
2023-03-20T04:48:59.322Z,7.30
2023-03-20T04:51:29.236Z,7.30
2023-03-20T04:53:55.930Z,7.30
2023-03-20T04:56:22.889Z,7.30
2023-03-20T04:58:50.818Z,7.20
2023-03-20T05:01:20.376Z,7.20
2023-03-20T05:03:47.222Z,7.20
2023-03-20T05:06:14.227Z,7.10
2023-03-20T05:08:43.309Z,7.10
2023-03-20T05:11:10.901Z,7.10
2023-03-20T05:14:12.724Z,7.10
2023-03-20T05:17:09.737Z,7.10
2023-03-20T05:19:45.208Z,6.90
2023-03-20T05:22:31.953Z,7.00
2023-03-20T05:25:08.922Z,7.00
2023-03-20T05:28:01.769Z,6.90
2023-03-20T05:30:37.362Z,6.80
2023-03-20T05:33:22.791Z,6.70
2023-03-20T05:36:18.510Z,6.70
2023-03-20T05:38:55.686Z,6.80
2023-03-20T05:41:46.416Z,6.80
2023-03-20T05:44:32.150Z,6.80
2023-03-20T05:47:26.738Z,6.80
2023-03-20T05:50:04.742Z,6.80
2023-03-20T05:52:57.324Z,6.80
2023-03-20T05:56:02.587Z,6.70
2023-03-20T05:58:48.036Z,6.60
2023-03-20T06:01:41.194Z,6.50
2023-03-20T06:04:37.398Z,6.40
2023-03-20T06:07:33.187Z,6.20
2023-03-20T06:10:04.259Z,6.10
2023-03-20T06:12:31.792Z,6.00
2023-03-20T06:14:58.748Z,6.00
2023-03-20T06:17:26.324Z,6.10
2023-03-20T06:19:59.789Z,6.10
2023-03-20T06:22:26.818Z,6.20
2023-03-20T06:24:55.356Z,6.30
2023-03-20T06:27:28.923Z,6.30
2023-03-20T06:29:56.094Z,6.40
2023-03-20T06:32:29.763Z,6.40
2023-03-20T06:34:58.884Z,6.50
2023-03-20T06:37:26.007Z,6.50
2023-03-20T06:40:00.527Z,6.60
2023-03-20T06:42:28.296Z,6.60
2023-03-20T06:44:56.351Z,6.70
2023-03-20T06:47:41.996Z,6.70
2023-03-20T06:50:10.212Z,6.70
2023-03-20T06:52:36.986Z,6.70
2023-03-20T06:55:39.326Z,6.70
2023-03-20T06:58:06.094Z,6.80
2023-03-20T07:00:34.432Z,7.00
2023-03-20T07:03:04.592Z,7.00
2023-03-20T07:05:32.366Z,7.10
2023-03-20T07:07:59.723Z,7.20
2023-03-20T07:10:27.268Z,7.20
2023-03-20T07:12:54.864Z,7.30
2023-03-20T07:15:22.000Z,7.40
2023-03-20T07:17:49.592Z,7.40
2023-03-20T07:20:16.761Z,7.50
2023-03-20T07:22:43.459Z,7.40
2023-03-20T07:25:42.105Z,7.40
2023-03-20T07:28:11.908Z,7.40
2023-03-20T07:30:42.105Z,7.30
2023-03-20T07:33:09.433Z,7.30
2023-03-20T07:35:36.706Z,7.30
2023-03-20T07:38:06.996Z,7.30
2023-03-20T07:40:38.229Z,7.30
2023-03-20T07:43:09.612Z,7.30
2023-03-20T07:46:05.633Z,7.40
2023-03-20T07:48:34.891Z,7.40
2023-03-20T07:51:01.853Z,7.50
2023-03-20T07:53:28.548Z,7.50
2023-03-20T07:55:55.435Z,7.50
2023-03-20T07:58:22.089Z,7.60
2023-03-20T08:00:48.803Z,7.60
2023-03-20T08:03:15.661Z,7.60
2023-03-20T08:05:45.164Z,7.70
2023-03-20T08:08:13.980Z,7.70
2023-03-20T08:10:40.843Z,7.80
2023-03-20T08:13:07.600Z,7.90
2023-03-20T08:15:34.961Z,7.90
2023-03-20T08:18:01.934Z,7.90
2023-03-20T08:20:28.939Z,7.90
2023-03-20T08:22:55.764Z,8.00
2023-03-20T08:25:22.607Z,8.20
2023-03-20T08:27:49.464Z,8.40
2023-03-20T08:30:16.511Z,8.50
2023-03-20T08:32:43.400Z,8.50
2023-03-20T08:35:25.799Z,8.30
2023-03-20T08:37:57.957Z,8.30
2023-03-20T08:40:24.700Z,8.10
2023-03-20T08:42:51.476Z,8.10
2023-03-20T08:45:18.205Z,8.00
2023-03-20T08:47:48.477Z,8.00
2023-03-20T08:50:15.131Z,8.20
2023-03-20T08:52:43.969Z,8.20
2023-03-20T08:55:11.369Z,8.30
2023-03-20T08:57:38.411Z,8.60
2023-03-20T09:00:07.157Z,8.70
2023-03-20T09:02:34.128Z,8.70
2023-03-20T09:05:01.318Z,8.90
2023-03-20T09:07:28.041Z,9.00
2023-03-20T09:09:54.714Z,9.00
2023-03-20T09:12:21.685Z,8.80
2023-03-20T09:14:48.697Z,8.90
2023-03-20T09:17:15.614Z,8.80
2023-03-20T09:19:44.538Z,8.80
2023-03-20T09:22:14.923Z,9.00
2023-03-20T09:24:41.713Z,9.00
2023-03-20T09:27:08.523Z,9.00
2023-03-20T09:29:35.650Z,9.00
2023-03-20T09:32:02.324Z,9.00
2023-03-20T09:34:29.389Z,9.20
2023-03-20T09:36:56.288Z,9.20
2023-03-20T09:39:23.152Z,9.40
2023-03-20T09:41:56.960Z,9.40
2023-03-20T09:44:49.136Z,9.40
2023-03-20T09:47:21.760Z,9.40
2023-03-20T09:50:42.054Z,9.60
2023-03-20T09:53:13.221Z,9.70
2023-03-20T09:55:40.483Z,9.70
2023-03-20T09:58:21.226Z,9.60
2023-03-20T10:00:47.943Z,9.60
2023-03-20T10:03:44.264Z,9.70
2023-03-20T10:06:16.237Z,9.70
2023-03-20T10:08:43.290Z,9.50
2023-03-20T10:11:55.418Z,9.50
2023-03-20T10:14:49.714Z,9.40
2023-03-20T10:17:41.106Z,9.60
2023-03-20T10:20:22.261Z,9.80
2023-03-20T10:22:51.277Z,9.90
2023-03-20T10:25:30.126Z,9.80
2023-03-20T10:28:11.281Z,9.80
2023-03-20T10:30:48.030Z,9.70
2023-03-20T10:33:48.108Z,9.80
2023-03-20T10:36:21.676Z,9.70
2023-03-20T10:39:06.149Z,9.70
2023-03-20T10:41:35.219Z,9.70
2023-03-20T10:44:02.115Z,9.60
2023-03-20T10:46:31.721Z,9.60
2023-03-20T10:49:08.671Z,9.40
2023-03-20T10:51:40.838Z,9.30
2023-03-20T10:54:21.335Z,9.50
2023-03-20T10:56:48.612Z,9.50
2023-03-20T10:59:30.885Z,9.50
2023-03-20T11:01:57.588Z,9.50
2023-03-20T11:04:28.582Z,9.50
2023-03-20T11:06:58.215Z,9.60
2023-03-20T11:09:27.799Z,9.70
2023-03-20T11:11:57.062Z,9.80
2023-03-20T11:14:36.148Z,10.00
2023-03-20T11:17:12.969Z,10.20
2023-03-20T11:19:41.262Z,10.30
2023-03-20T11:22:18.865Z,10.40
2023-03-20T11:24:46.240Z,10.40
2023-03-20T11:27:15.153Z,10.40
2023-03-20T11:29:45.153Z,10.20
2023-03-20T11:32:31.493Z,10.10
2023-03-20T11:35:11.764Z,10.10
2023-03-20T11:37:43.958Z,10.00
2023-03-20T11:40:25.755Z,10.00
2023-03-20T11:42:57.450Z,10.00
2023-03-20T11:45:25.504Z,9.90
2023-03-20T11:47:54.028Z,9.90
2023-03-20T11:50:31.673Z,9.80
2023-03-20T11:52:58.368Z,9.90
2023-03-20T11:55:32.750Z,9.90
2023-03-20T11:58:03.993Z,9.90
2023-03-20T12:00:41.505Z,9.90
2023-03-20T12:03:36.858Z,10.00
2023-03-20T12:06:06.695Z,10.10
2023-03-20T12:08:33.347Z,10.20
2023-03-20T12:11:03.857Z,10.20
2023-03-20T12:13:35.534Z,10.30
2023-03-20T12:16:06.700Z,10.40
2023-03-20T12:18:38.881Z,10.50
2023-03-20T12:21:28.321Z,10.50
2023-03-20T12:24:18.043Z,10.60
2023-03-20T12:27:00.318Z,10.60
2023-03-20T12:29:36.474Z,11.30
2023-03-20T12:32:35.923Z,12.10
2023-03-20T12:35:07.180Z,12.60
2023-03-20T12:37:35.046Z,13.10
2023-03-20T12:40:01.973Z,13.20
2023-03-20T12:43:00.870Z,12.80
2023-03-20T12:45:44.144Z,12.50
2023-03-20T12:48:36.812Z,12.70
2023-03-20T12:51:25.911Z,12.90
2023-03-20T12:54:12.333Z,12.90
2023-03-20T12:57:11.037Z,12.70
2023-03-20T12:59:40.627Z,12.50
2023-03-20T13:02:32.472Z,12.40
2023-03-20T13:05:24.502Z,12.10
2023-03-20T13:08:11.748Z,11.90
2023-03-20T13:10:53.086Z,11.60
2023-03-20T13:13:33.800Z,11.30
2023-03-20T13:16:38.998Z,11.30
2023-03-20T13:19:35.106Z,11.10
2023-03-20T13:22:40.246Z,11.10
2023-03-20T13:25:12.122Z,11.20
2023-03-20T13:27:45.458Z,11.20
2023-03-20T13:30:26.823Z,11.20
2023-03-20T13:33:09.594Z,11.10
2023-03-20T13:36:06.060Z,11.30
2023-03-20T13:38:37.911Z,11.30
2023-03-20T13:41:06.263Z,11.40
2023-03-20T13:43:41.900Z,11.50
2023-03-20T13:46:43.081Z,11.60
2023-03-20T13:49:45.113Z,11.50
2023-03-20T13:52:20.536Z,11.50
2023-03-20T13:55:03.165Z,11.60
2023-03-20T13:58:03.669Z,11.60
2023-03-20T14:00:57.758Z,11.80
2023-03-20T14:03:30.855Z,11.80
2023-03-20T14:05:57.747Z,11.90
2023-03-20T14:08:33.515Z,11.90
2023-03-20T14:11:06.576Z,11.90
2023-03-20T14:13:33.826Z,11.90
2023-03-20T14:16:02.969Z,11.70
2023-03-20T14:18:29.825Z,11.70
2023-03-20T14:21:00.938Z,11.60
2023-03-20T14:23:38.011Z,11.70
2023-03-20T14:26:19.331Z,11.60
2023-03-20T14:28:53.997Z,11.70
2023-03-20T14:31:23.051Z,11.60
2023-03-20T14:34:01.096Z,11.50
2023-03-20T14:36:47.496Z,11.50
2023-03-20T14:40:08.136Z,11.40
2023-03-20T14:42:57.444Z,11.20
2023-03-20T14:45:31.453Z,11.20
2023-03-20T14:48:01.757Z,11.30
2023-03-20T14:50:32.373Z,11.30
2023-03-20T14:52:59.043Z,11.30
2023-03-20T14:55:27.894Z,11.20
2023-03-20T14:57:56.915Z,11.20
2023-03-20T15:00:24.191Z,11.20
2023-03-20T15:02:52.745Z,11.20
2023-03-20T15:05:30.154Z,11.20
2023-03-20T15:07:57.821Z,11.20
2023-03-20T15:10:25.397Z,11.20
2023-03-20T15:12:52.062Z,11.20
2023-03-20T15:15:31.437Z,11.20
2023-03-20T15:18:04.917Z,11.30
2023-03-20T15:20:31.856Z,11.30
2023-03-20T15:23:00.287Z,11.20
2023-03-20T15:25:39.851Z,11.20
2023-03-20T15:28:07.278Z,11.20
2023-03-20T15:30:38.221Z,11.10
2023-03-20T15:33:05.255Z,11.00
2023-03-20T15:35:32.249Z,11.00
2023-03-20T15:38:03.837Z,11.10
2023-03-20T15:40:47.509Z,11.10
2023-03-20T15:43:24.274Z,11.10
2023-03-20T15:46:03.036Z,11.10
2023-03-20T15:48:37.079Z,11.20
2023-03-20T15:51:05.048Z,11.20
2023-03-20T15:53:36.365Z,11.10
2023-03-20T15:56:18.582Z,11.10
2023-03-20T15:58:46.422Z,11.10
2023-03-20T16:01:18.120Z,11.10
2023-03-20T16:03:44.799Z,11.20
2023-03-20T16:06:12.157Z,11.30
2023-03-20T16:08:39.081Z,11.30
2023-03-20T16:11:10.592Z,11.30
2023-03-20T16:13:42.416Z,11.20
2023-03-20T16:16:12.534Z,11.10
2023-03-20T16:18:39.413Z,11.00
2023-03-20T16:21:10.707Z,11.00
2023-03-20T16:23:42.211Z,11.00
2023-03-20T16:26:10.890Z,11.00
2023-03-20T16:28:37.765Z,11.10
2023-03-20T16:31:09.602Z,11.00
2023-03-20T16:33:37.055Z,11.00
2023-03-20T16:36:04.479Z,11.00
2023-03-20T16:38:35.895Z,10.90
2023-03-20T16:41:16.341Z,10.90
2023-03-20T16:43:46.926Z,10.80
2023-03-20T16:46:17.840Z,10.80
2023-03-20T16:48:44.610Z,10.80
2023-03-20T16:51:18.746Z,10.70
2023-03-20T16:53:47.403Z,10.70
2023-03-20T16:56:17.098Z,10.60
2023-03-20T16:58:45.619Z,10.60
2023-03-20T17:01:18.113Z,10.50
2023-03-20T17:03:53.221Z,10.50
2023-03-20T17:06:21.019Z,10.40
2023-03-20T17:08:53.085Z,10.40
2023-03-20T17:11:27.084Z,10.40
2023-03-20T17:13:53.988Z,10.40
2023-03-20T17:16:21.632Z,10.40
2023-03-20T17:18:58.152Z,10.40
2023-03-20T17:21:25.034Z,10.40
2023-03-20T17:23:51.770Z,10.40
2023-03-20T17:26:18.438Z,10.30
2023-03-20T17:28:45.229Z,10.30
2023-03-20T17:31:15.958Z,10.20
2023-03-20T17:33:42.808Z,10.10
2023-03-20T17:36:22.432Z,10.10
2023-03-20T17:38:49.242Z,10.00
2023-03-20T17:41:17.241Z,10.00
2023-03-20T17:43:44.384Z,9.90
2023-03-20T17:46:19.224Z,9.90
2023-03-20T17:48:47.109Z,9.90
2023-03-20T17:51:13.766Z,9.80
2023-03-20T17:53:40.516Z,9.80
2023-03-20T17:56:12.393Z,9.70
2023-03-20T17:58:39.458Z,9.70
2023-03-20T18:01:09.362Z,9.70
2023-03-20T18:03:36.302Z,9.60
2023-03-20T18:06:03.461Z,9.60
2023-03-20T18:08:30.434Z,9.60
2023-03-20T18:10:57.802Z,9.60
2023-03-20T18:13:25.262Z,9.50
2023-03-20T18:15:53.752Z,9.50
2023-03-20T18:18:23.721Z,9.60
2023-03-20T18:20:51.768Z,9.50
2023-03-20T18:23:18.490Z,9.50
2023-03-20T18:25:45.356Z,9.50
2023-03-20T18:28:22.412Z,9.50
2023-03-20T18:30:49.758Z,9.50
2023-03-20T18:33:16.647Z,9.50
2023-03-20T18:35:43.357Z,9.40
2023-03-20T18:38:12.283Z,9.40
2023-03-20T18:40:39.297Z,9.30
2023-03-20T18:43:06.296Z,9.30
2023-03-20T18:45:32.948Z,9.30
2023-03-20T18:47:59.872Z,9.10
2023-03-20T18:50:27.576Z,9.10
2023-03-20T18:52:55.298Z,9.10
2023-03-20T18:55:23.099Z,9.10
2023-03-20T18:57:50.357Z,9.00
2023-03-20T19:00:18.934Z,8.90
2023-03-20T19:02:45.917Z,8.90
2023-03-20T19:05:12.706Z,8.80
2023-03-20T19:07:39.440Z,8.80
2023-03-20T19:10:06.601Z,8.70
2023-03-20T19:12:33.391Z,8.70
2023-03-20T19:15:00.286Z,8.70
2023-03-20T19:17:27.235Z,8.70
2023-03-20T19:19:53.900Z,8.70
2023-03-20T19:22:29.315Z,8.70
2023-03-20T19:24:56.486Z,8.70
2023-03-20T19:27:23.183Z,8.70
2023-03-20T19:29:49.991Z,8.80
2023-03-20T19:32:16.659Z,8.80
2023-03-20T19:37:30.242Z,8.90
2023-03-20T19:39:56.945Z,8.90
2023-03-20T19:42:53.044Z,8.80
2023-03-20T19:45:10.907Z,8.70
2023-03-20T19:47:37.646Z,8.70
2023-03-20T19:50:04.930Z,8.70
2023-03-20T19:52:33.566Z,8.60
2023-03-20T19:55:03.515Z,8.50
2023-03-20T19:57:30.524Z,8.50
2023-03-20T20:00:46.437Z,8.50
2023-03-20T20:02:44.074Z,8.50
2023-03-20T20:05:22.112Z,8.50
2023-03-20T20:08:17.050Z,8.50
2023-03-20T20:10:38.599Z,8.50
2023-03-20T20:13:06.349Z,8.50
2023-03-20T20:15:34.608Z,8.50
2023-03-20T20:18:01.350Z,8.50
2023-03-20T20:20:29.871Z,8.60
2023-03-20T20:22:56.727Z,8.50
2023-03-20T20:25:23.416Z,8.50
2023-03-20T20:27:50.196Z,8.40
2023-03-20T20:30:18.647Z,8.40
2023-03-20T20:32:46.537Z,8.40
2023-03-20T20:35:40.706Z,8.50
2023-03-20T20:38:33.613Z,8.50
2023-03-20T20:40:47.952Z,8.40
2023-03-20T20:43:38.991Z,8.40
2023-03-20T20:46:02.147Z,8.40
2023-03-20T20:48:28.910Z,8.50
2023-03-20T20:51:01.802Z,8.40
2023-03-20T20:53:28.508Z,8.40
2023-03-20T20:55:55.232Z,8.40
2023-03-20T20:58:21.932Z,8.40
2023-03-20T21:00:54.744Z,8.40
2023-03-20T21:03:22.073Z,8.40
2023-03-20T21:05:48.796Z,8.40
2023-03-20T21:08:18.324Z,8.40
2023-03-20T21:10:45.815Z,8.40
2023-03-20T21:13:12.884Z,8.40
2023-03-20T21:15:39.994Z,8.50
2023-03-20T21:18:06.984Z,8.60
2023-03-20T21:20:33.822Z,8.60
2023-03-20T21:23:00.601Z,8.60
2023-03-20T21:25:47.083Z,8.70
2023-03-20T21:28:14.390Z,8.70
2023-03-20T21:30:54.468Z,8.80
2023-03-20T21:33:28.572Z,8.80
2023-03-20T21:35:55.280Z,8.90
2023-03-20T21:38:58.593Z,8.90
2023-03-20T21:41:09.943Z,8.90
2023-03-20T21:43:36.647Z,8.90
2023-03-20T21:57:48.363Z,8.90
2023-03-20T22:00:47.824Z,8.90
2023-03-20T22:02:45.551Z,8.90
2023-03-20T22:11:56.479Z,8.90
2023-03-20T22:14:40.703Z,9.00
2023-03-20T22:23:04.386Z,9.00
2023-03-20T22:25:31.870Z,8.90
2023-03-20T22:28:15.826Z,9.00
2023-03-20T22:36:46.941Z,9.00
2023-03-20T22:47:07.156Z,9.00
2023-03-20T22:49:33.840Z,9.00
2023-03-20T22:52:24.449Z,9.00
2023-03-20T22:54:47.546Z,8.90
2023-03-20T22:57:14.212Z,8.90
2023-03-20T22:59:40.931Z,8.90
2023-03-20T23:02:09.189Z,8.80
2023-03-20T23:04:36.033Z,8.80
2023-03-20T23:07:02.727Z,8.80
2023-03-20T23:09:29.494Z,8.80
2023-03-20T23:11:56.213Z,8.80
2023-03-20T23:14:23.645Z,8.90
2023-03-20T23:16:51.611Z,8.90
2023-03-20T23:19:18.314Z,8.80
2023-03-20T23:21:45.032Z,8.80
2023-03-20T23:24:11.747Z,8.80
2023-03-20T23:26:38.445Z,8.80
2023-03-20T23:29:05.680Z,8.80
2023-03-20T23:31:32.487Z,8.80
2023-03-20T23:33:59.247Z,8.80
2023-03-20T23:36:36.011Z,8.80
2023-03-20T23:39:05.657Z,8.80
2023-03-20T23:42:01.742Z,8.90
2023-03-20T23:44:19.150Z,8.90
2023-03-20T23:46:48.158Z,8.90
2023-03-20T23:49:15.840Z,8.80
2023-03-20T23:51:42.795Z,8.80
2023-03-20T23:54:09.452Z,8.80
2023-03-20T23:56:36.242Z,8.80
2023-03-20T23:59:11.422Z,8.80
